sensor_id;sensor_type;location;lat;lon;timestamp;pressure;altitude;pressure_sealevel;temperature;humidity
6136;BME280;24008;42.664;23.372;2023-04-06T00:00:37;94478.84;;;-0.41;78.61
6136;BME280;24008;42.664;23.372;2023-04-06T00:03:04;94471.03;;;-0.36;77.87
6136;BME280;24008;42.664;23.372;2023-04-06T00:05:33;94187.13;;;-2.30;76.75
6136;BME280;24008;42.664;23.372;2023-04-06T00:08:00;94241.84;;;-1.75;76.93
6136;BME280;24008;42.664;23.372;2023-04-06T00:10:27;94045.13;;;-2.91;76.09
6136;BME280;24008;42.664;23.372;2023-04-06T00:12:54;94190.69;;;-2.02;76.28
6136;BME280;24008;42.664;23.372;2023-04-06T00:15:23;94456.63;;;-0.32;76.72
6136;BME280;24008;42.664;23.372;2023-04-06T00:17:50;94425.22;;;-0.55;76.28
6136;BME280;24008;42.664;23.372;2023-04-06T00:20:18;94455.81;;;-0.33;75.81
6136;BME280;24008;42.664;23.372;2023-04-06T00:22:45;94264.25;;;-1.56;75.92
6136;BME280;24008;42.664;23.372;2023-04-06T00:25:11;94452.41;;;-0.32;76.36
6136;BME280;24008;42.664;23.372;2023-04-06T00:27:40;94454.19;;;-0.34;76.19
6136;BME280;24008;42.664;23.372;2023-04-06T00:30:08;94451.88;;;-0.37;76.17
6136;BME280;24008;42.664;23.372;2023-04-06T00:32:36;94447.56;;;-0.35;76.56
6136;BME280;24008;42.664;23.372;2023-04-06T00:35:03;94395.22;;;-0.73;76.25
6136;BME280;24008;42.664;23.372;2023-04-06T00:37:31;94449.38;;;-0.37;76.54
6136;BME280;24008;42.664;23.372;2023-04-06T00:40:16;94334.34;;;-1.08;76.45
6136;BME280;24008;42.664;23.372;2023-04-06T00:42:43;94450.81;;;-0.33;76.71
6136;BME280;24008;42.664;23.372;2023-04-06T00:45:10;94353.22;;;-0.85;76.77
6136;BME280;24008;42.664;23.372;2023-04-06T00:47:38;94435.72;;;-0.33;77.03
6136;BME280;24008;42.664;23.372;2023-04-06T00:50:06;94439.13;;;-0.34;77.10
6136;BME280;24008;42.664;23.372;2023-04-06T00:52:33;94430.72;;;-0.33;76.95
6136;BME280;24008;42.664;23.372;2023-04-06T00:55:01;94438.09;;;-0.30;77.33
6136;BME280;24008;42.664;23.372;2023-04-06T00:57:27;94431.44;;;-0.31;77.64
6136;BME280;24008;42.664;23.372;2023-04-06T00:59:55;94359.84;;;-0.84;77.17
6136;BME280;24008;42.664;23.372;2023-04-06T01:02:21;94371.72;;;-0.72;76.87
6136;BME280;24008;42.664;23.372;2023-04-06T01:04:51;94429.59;;;-0.27;76.94
6136;BME280;24008;42.664;23.372;2023-04-06T01:07:19;94450.22;;;-0.22;76.54
6136;BME280;24008;42.664;23.372;2023-04-06T01:09:46;94403.44;;;-0.39;76.95
6136;BME280;24008;42.664;23.372;2023-04-06T01:12:12;94324.72;;;-0.84;76.27
6136;BME280;24008;42.664;23.372;2023-04-06T01:14:39;94436.91;;;-0.09;76.19
6136;BME280;24008;42.664;23.372;2023-04-06T01:17:06;93835.06;;;-4.51;75.73
6136;BME280;24008;42.664;23.372;2023-04-06T01:19:33;94260.69;;;-1.21;75.61
6136;BME280;24008;42.664;23.372;2023-04-06T01:22:02;94361.56;;;-0.39;75.15
6136;BME280;24008;42.664;23.372;2023-04-06T01:24:30;94423.06;;;0.00;75.56
6136;BME280;24008;42.664;23.372;2023-04-06T01:26:57;94268.50;;;-0.95;75.52
6136;BME280;24008;42.664;23.372;2023-04-06T01:29:24;94323.69;;;-0.50;75.73
6136;BME280;24008;42.664;23.372;2023-04-06T01:31:51;94420.44;;;0.02;75.65
6136;BME280;24008;42.664;23.372;2023-04-06T01:34:18;94208.75;;;-1.19;75.67
6136;BME280;24008;42.664;23.372;2023-04-06T01:36:45;94411.56;;;-0.20;75.42
6136;BME280;24008;42.664;23.372;2023-04-06T01:39:12;94403.03;;;0.13;75.18
6136;BME280;24008;42.664;23.372;2023-04-06T01:41:40;94295.22;;;-0.64;74.81
6136;BME280;24008;42.664;23.372;2023-04-06T01:44:07;94416.16;;;0.18;74.99
6136;BME280;24008;42.664;23.372;2023-04-06T01:46:34;94409.34;;;0.20;75.09
6136;BME280;24008;42.664;23.372;2023-04-06T01:49:00;94405.94;;;0.21;74.43
6136;BME280;24008;42.664;23.372;2023-04-06T01:51:27;94166.00;;;-1.31;73.84
6136;BME280;24008;42.664;23.372;2023-04-06T01:53:54;94223.03;;;-0.89;74.55
6136;BME280;24008;42.664;23.372;2023-04-06T01:56:21;94423.38;;;0.24;74.52
6136;BME280;24008;42.664;23.372;2023-04-06T01:58:49;94405.78;;;0.24;74.17
6136;BME280;24008;42.664;23.372;2023-04-06T02:01:15;94358.34;;;0.04;74.71
6136;BME280;24008;42.664;23.372;2023-04-06T02:03:42;94316.13;;;-0.20;74.47
6136;BME280;24008;42.664;23.372;2023-04-06T02:06:09;94391.06;;;0.32;74.29
6136;BME280;24008;42.664;23.372;2023-04-06T02:08:36;94393.41;;;0.35;74.75
6136;BME280;24008;42.664;23.372;2023-04-06T02:11:03;94278.28;;;-0.31;74.21
6136;BME280;24008;42.664;23.372;2023-04-06T02:13:30;94388.19;;;0.38;73.97
6136;BME280;24008;42.664;23.372;2023-04-06T02:15:58;94396.44;;;0.40;74.00
6136;BME280;24008;42.664;23.372;2023-04-06T02:18:25;94122.09;;;-1.23;73.59
6136;BME280;24008;42.664;23.372;2023-04-06T02:20:51;94323.34;;;0.00;73.40
6136;BME280;24008;42.664;23.372;2023-04-06T02:23:18;94388.81;;;0.42;73.31
6136;BME280;24008;42.664;23.372;2023-04-06T02:25:45;94208.63;;;-0.72;73.71
6136;BME280;24008;42.664;23.372;2023-04-06T02:28:12;94387.03;;;0.44;73.55
6136;BME280;24008;42.664;23.372;2023-04-06T02:30:39;94206.69;;;-0.66;73.73
6136;BME280;24008;42.664;23.372;2023-04-06T02:33:07;94310.97;;;-0.03;73.71
6136;BME280;24008;42.664;23.372;2023-04-06T02:35:34;94206.13;;;-0.72;73.38
6136;BME280;24008;42.664;23.372;2023-04-06T02:38:00;94389.28;;;0.48;73.12
6136;BME280;24008;42.664;23.372;2023-04-06T02:40:27;94192.47;;;-0.82;73.07
6136;BME280;24008;42.664;23.372;2023-04-06T02:42:54;93953.44;;;-2.29;73.12
6136;BME280;24008;42.664;23.372;2023-04-06T02:45:21;94197.16;;;-0.76;73.17
6136;BME280;24008;42.664;23.372;2023-04-06T02:47:48;94389.63;;;0.42;73.05
6136;BME280;24008;42.664;23.372;2023-04-06T02:50:16;94108.47;;;-1.33;73.18
6136;BME280;24008;42.664;23.372;2023-04-06T02:52:43;94242.19;;;-0.58;73.60
6136;BME280;24008;42.664;23.372;2023-04-06T02:55:10;94322.91;;;-0.06;73.57
6136;BME280;24008;42.664;23.372;2023-04-06T02:57:36;94174.50;;;-1.04;73.74
6136;BME280;24008;42.664;23.372;2023-04-06T03:00:04;94383.88;;;0.40;73.66
6136;BME280;24008;42.664;23.372;2023-04-06T03:02:32;94384.78;;;0.39;73.69
6136;BME280;24008;42.664;23.372;2023-04-06T03:04:58;94397.34;;;0.39;74.07
6136;BME280;24008;42.664;23.372;2023-04-06T03:07:27;94384.16;;;0.35;73.79
6136;BME280;24008;42.664;23.372;2023-04-06T03:09:53;94288.44;;;-0.18;74.05
6136;BME280;24008;42.664;23.372;2023-04-06T03:12:20;94442.06;;;0.34;74.16
6136;BME280;24008;42.664;23.372;2023-04-06T03:14:47;94324.25;;;-0.01;73.93
6136;BME280;24008;42.664;23.372;2023-04-06T03:17:14;94390.16;;;0.33;73.89
6136;BME280;24008;42.664;23.372;2023-04-06T03:19:41;94141.13;;;-1.20;74.33
6136;BME280;24008;42.664;23.372;2023-04-06T03:22:08;94333.88;;;0.07;74.02
6136;BME280;24008;42.664;23.372;2023-04-06T03:24:36;94124.28;;;-1.32;73.99
6136;BME280;24008;42.664;23.372;2023-04-06T03:27:03;94392.84;;;0.30;74.43
6136;BME280;24008;42.664;23.372;2023-04-06T03:29:36;94381.19;;;0.29;74.50
6136;BME280;24008;42.664;23.372;2023-04-06T03:32:06;94373.38;;;0.33;73.98
6136;BME280;24008;42.664;23.372;2023-04-06T03:34:33;93779.41;;;-3.38;73.60
6136;BME280;24008;42.664;23.372;2023-04-06T03:37:00;94378.84;;;0.40;74.22
6136;BME280;24008;42.664;23.372;2023-04-06T03:39:26;94036.53;;;-1.76;73.96
6136;BME280;24008;42.664;23.372;2023-04-06T03:41:55;94227.50;;;-0.50;73.59
6136;BME280;24008;42.664;23.372;2023-04-06T03:44:21;94309.00;;;0.03;74.24
6136;BME280;24008;42.664;23.372;2023-04-06T03:46:48;94371.88;;;0.45;74.03
6136;BME280;24008;42.664;23.372;2023-04-06T03:49:15;94339.34;;;0.28;73.61
6136;BME280;24008;42.664;23.372;2023-04-06T03:51:42;94371.59;;;0.50;73.61
6136;BME280;24008;42.664;23.372;2023-04-06T03:54:09;94377.25;;;0.53;73.09
6136;BME280;24008;42.664;23.372;2023-04-06T03:56:35;94372.31;;;0.52;73.22
6136;BME280;24008;42.664;23.372;2023-04-06T03:59:04;94253.00;;;-0.28;73.18
6136;BME280;24008;42.664;23.372;2023-04-06T04:01:31;94318.09;;;0.19;72.80
6136;BME280;24008;42.664;23.372;2023-04-06T04:03:57;94374.47;;;0.58;73.00
6136;BME280;24008;42.664;23.372;2023-04-06T04:06:24;94374.19;;;0.62;73.10
6136;BME280;24008;42.664;23.372;2023-04-06T04:08:51;94376.69;;;0.62;72.67
6136;BME280;24008;42.664;23.372;2023-04-06T04:11:18;94293.94;;;0.17;72.54
6136;BME280;24008;42.664;23.372;2023-04-06T04:14:07;94318.00;;;0.21;72.35
6136;BME280;24008;42.664;23.372;2023-04-06T04:16:54;94292.31;;;0.16;72.69
6136;BME280;24008;42.664;23.372;2023-04-06T04:19:41;94377.97;;;0.69;72.52
6136;BME280;24008;42.664;23.372;2023-04-06T04:22:28;94054.09;;;-1.32;72.17
6136;BME280;24008;42.664;23.372;2023-04-06T04:25:15;94371.84;;;0.73;72.64
6136;BME280;24008;42.664;23.372;2023-04-06T04:27:42;94377.50;;;0.77;72.27
6136;BME280;24008;42.664;23.372;2023-04-06T04:30:10;94305.53;;;0.33;71.78
6136;BME280;24008;42.664;23.372;2023-04-06T04:32:37;94354.53;;;0.69;72.52
6136;BME280;24008;42.664;23.372;2023-04-06T04:35:04;94168.16;;;-0.51;72.19
6136;BME280;24008;42.664;23.372;2023-04-06T04:37:32;94378.94;;;0.95;72.10
6136;BME280;24008;42.664;23.372;2023-04-06T04:40:00;94171.03;;;-0.29;72.31
6136;BME280;24008;42.664;23.372;2023-04-06T04:42:27;94312.59;;;0.69;72.19
6136;BME280;24008;42.664;23.372;2023-04-06T04:44:53;94381.16;;;1.14;72.08
6136;BME280;24008;42.664;23.372;2023-04-06T04:47:22;94378.38;;;1.19;71.64
6136;BME280;24008;42.664;23.372;2023-04-06T04:49:49;94183.03;;;-0.06;70.68
6136;BME280;24008;42.664;23.372;2023-04-06T04:52:15;94375.75;;;1.20;70.87
6136;BME280;24008;42.664;23.372;2023-04-06T04:54:42;94345.75;;;1.03;70.57
6136;BME280;24008;42.664;23.372;2023-04-06T04:57:24;94274.31;;;0.64;70.23
6136;BME280;24008;42.664;23.372;2023-04-06T04:59:51;94274.31;;;0.64;70.25
6136;BME280;24008;42.664;23.372;2023-04-06T05:02:18;94280.41;;;0.75;70.02
6136;BME280;24008;42.664;23.372;2023-04-06T05:04:45;94394.66;;;1.40;70.01
6136;BME280;24008;42.664;23.372;2023-04-06T05:07:12;94384.41;;;1.43;69.88
6136;BME280;24008;42.664;23.372;2023-04-06T05:09:40;94212.69;;;0.45;69.82
6136;BME280;24008;42.664;23.372;2023-04-06T05:12:09;93867.03;;;-1.62;69.51
6136;BME280;24008;42.664;23.372;2023-04-06T05:14:37;93942.09;;;-1.32;69.18
6136;BME280;24008;42.664;23.372;2023-04-06T05:17:04;94238.66;;;0.72;69.02
6136;BME280;24008;42.664;23.372;2023-04-06T05:19:31;94307.13;;;1.04;69.02
6136;BME280;24008;42.664;23.372;2023-04-06T05:21:58;94311.56;;;1.13;69.30
6136;BME280;24008;42.664;23.372;2023-04-06T05:24:25;94005.44;;;-0.86;69.40
6136;BME280;24008;42.664;23.372;2023-04-06T05:26:52;94236.38;;;0.41;69.74
6136;BME280;24008;42.664;23.372;2023-04-06T05:29:19;93894.69;;;-1.63;69.69
6136;BME280;24008;42.664;23.372;2023-04-06T05:31:48;94386.97;;;1.56;69.72
6136;BME280;24008;42.664;23.372;2023-04-06T05:34:14;94266.22;;;0.73;70.20
6136;BME280;24008;42.664;23.372;2023-04-06T05:36:41;94318.41;;;1.11;70.68
6136;BME280;24008;42.664;23.372;2023-04-06T05:39:08;94334.00;;;1.30;71.48
6136;BME280;24008;42.664;23.372;2023-04-06T05:41:35;94221.19;;;0.56;70.40
6136;BME280;24008;42.664;23.372;2023-04-06T05:44:02;94435.22;;;1.76;70.90
6136;BME280;24008;42.664;23.372;2023-04-06T05:46:28;94392.69;;;1.85;71.03
6136;BME280;24008;42.664;23.372;2023-04-06T05:48:57;94200.44;;;0.80;71.41
6136;BME280;24008;42.664;23.372;2023-04-06T05:51:24;94380.13;;;1.97;70.46
6136;BME280;24008;42.664;23.372;2023-04-06T05:53:52;94356.31;;;1.76;70.07
6136;BME280;24008;42.664;23.372;2023-04-06T05:56:19;94386.50;;;2.03;70.14
6136;BME280;24008;42.664;23.372;2023-04-06T05:58:46;94143.56;;;0.64;70.92
6136;BME280;24008;42.664;23.372;2023-04-06T06:01:12;94216.84;;;1.12;70.17
6136;BME280;24008;42.664;23.372;2023-04-06T06:03:39;94374.50;;;2.06;70.75
6136;BME280;24008;42.664;23.372;2023-04-06T06:06:07;94369.34;;;1.95;70.97
6136;BME280;24008;42.664;23.372;2023-04-06T06:08:34;94258.84;;;1.24;71.02
6136;BME280;24008;42.664;23.372;2023-04-06T06:11:02;94067.50;;;-0.06;70.65
6136;BME280;24008;42.664;23.372;2023-04-06T06:13:28;94369.34;;;1.95;71.23
6136;BME280;24008;42.664;23.372;2023-04-06T06:15:55;94195.16;;;0.97;71.45
6136;BME280;24008;42.664;23.372;2023-04-06T06:18:22;94368.88;;;2.15;71.94
6136;BME280;24008;42.664;23.372;2023-04-06T06:20:49;94119.03;;;0.68;71.57
6136;BME280;24008;42.664;23.372;2023-04-06T06:23:17;94370.28;;;2.32;71.63
6136;BME280;24008;42.664;23.372;2023-04-06T06:25:45;94368.19;;;2.39;70.86
6136;BME280;24008;42.664;23.372;2023-04-06T06:28:12;94370.00;;;2.49;70.85
6136;BME280;24008;42.664;23.372;2023-04-06T06:30:39;94393.59;;;2.61;70.88
6136;BME280;24008;42.664;23.372;2023-04-06T06:33:06;94366.19;;;3.06;69.68
6136;BME280;24008;42.664;23.372;2023-04-06T06:35:33;94296.56;;;2.78;68.78
6136;BME280;24008;42.664;23.372;2023-04-06T06:37:59;94368.59;;;3.44;67.96
6136;BME280;24008;42.664;23.372;2023-04-06T06:40:27;94368.50;;;3.69;67.54
6136;BME280;24008;42.664;23.372;2023-04-06T06:42:54;94376.78;;;4.06;66.81
6136;BME280;24008;42.664;23.372;2023-04-06T06:45:21;94359.84;;;4.42;65.17
6136;BME280;24008;42.664;23.372;2023-04-06T06:47:50;94372.06;;;4.59;63.68
6136;BME280;24008;42.664;23.372;2023-04-06T06:50:17;94350.84;;;5.38;62.20
6136;BME280;24008;42.664;23.372;2023-04-06T06:52:44;94362.03;;;6.31;58.78
6136;BME280;24008;42.664;23.372;2023-04-06T06:55:11;94369.69;;;7.22;57.16
6136;BME280;24008;42.664;23.372;2023-04-06T06:57:39;94231.59;;;7.03;54.36
6136;BME280;24008;42.664;23.372;2023-04-06T07:00:08;94360.28;;;8.02;52.89
6136;BME280;24008;42.664;23.372;2023-04-06T07:02:36;94363.34;;;8.15;51.44
6136;BME280;24008;42.664;23.372;2023-04-06T07:05:03;94367.88;;;8.59;50.59
6136;BME280;24008;42.664;23.372;2023-04-06T07:07:31;94332.09;;;9.70;48.61
6136;BME280;24008;42.664;23.372;2023-04-06T07:09:58;94188.41;;;8.99;46.06
6136;BME280;24008;42.664;23.372;2023-04-06T07:12:25;94245.25;;;9.45;45.90
6136;BME280;24008;42.664;23.372;2023-04-06T07:14:54;94343.72;;;9.55;47.17
6136;BME280;24008;42.664;23.372;2023-04-06T07:17:21;94355.66;;;9.10;47.51
6136;BME280;24008;42.664;23.372;2023-04-06T07:19:48;94347.72;;;9.40;46.51
6136;BME280;24008;42.664;23.372;2023-04-06T07:22:14;94289.00;;;8.77;45.53
6136;BME280;24008;42.664;23.372;2023-04-06T07:24:41;94350.69;;;9.08;47.00
6136;BME280;24008;42.664;23.372;2023-04-06T07:27:08;94197.19;;;8.42;46.42
6136;BME280;24008;42.664;23.372;2023-04-06T07:29:35;94249.38;;;9.10;46.34
6136;BME280;24008;42.664;23.372;2023-04-06T07:32:03;94347.44;;;10.24;44.38
6136;BME280;24008;42.664;23.372;2023-04-06T07:34:42;94292.13;;;9.79;44.31
6136;BME280;24008;42.664;23.372;2023-04-06T07:37:12;94189.56;;;9.75;43.82
6136;BME280;24008;42.664;23.372;2023-04-06T07:39:38;94348.09;;;11.53;42.57
6136;BME280;24008;42.664;23.372;2023-04-06T07:42:06;94346.81;;;11.07;41.27
6136;BME280;24008;42.664;23.372;2023-04-06T07:44:33;93901.09;;;7.23;43.01
6136;BME280;24008;42.664;23.372;2023-04-06T07:46:59;93920.03;;;7.11;43.31
6136;BME280;24008;42.664;23.372;2023-04-06T07:49:28;94392.31;;;8.99;45.56
6136;BME280;24008;42.664;23.372;2023-04-06T07:51:55;94358.63;;;9.32;46.92
6136;BME280;24008;42.664;23.372;2023-04-06T07:54:22;94345.31;;;10.19;44.38
6136;BME280;24008;42.664;23.372;2023-04-06T07:56:49;94347.53;;;10.66;42.74
6136;BME280;24008;42.664;23.372;2023-04-06T07:59:19;94289.50;;;11.26;41.17
6136;BME280;24008;42.664;23.372;2023-04-06T08:01:45;94159.13;;;10.92;40.15
6136;BME280;24008;42.664;23.372;2023-04-06T08:04:12;93972.38;;;9.87;39.95
6136;BME280;24008;42.664;23.372;2023-04-06T08:06:40;94340.25;;;12.30;39.65
6136;BME280;24008;42.664;23.372;2023-04-06T08:09:07;94343.44;;;12.15;40.04
6136;BME280;24008;42.664;23.372;2023-04-06T08:11:34;94112.97;;;10.86;40.36
6136;BME280;24008;42.664;23.372;2023-04-06T08:14:01;94182.38;;;11.39;39.77
6136;BME280;24008;42.664;23.372;2023-04-06T08:16:28;94333.81;;;12.50;39.14
6136;BME280;24008;42.664;23.372;2023-04-06T08:18:55;94333.75;;;12.90;38.89
6136;BME280;24008;42.664;23.372;2023-04-06T08:21:24;94337.44;;;13.43;37.41
6136;BME280;24008;42.664;23.372;2023-04-06T08:23:52;94346.84;;;13.12;37.31
6136;BME280;24008;42.664;23.372;2023-04-06T08:26:19;94352.66;;;12.89;38.16
6136;BME280;24008;42.664;23.372;2023-04-06T08:28:46;94232.19;;;11.94;38.87
6136;BME280;24008;42.664;23.372;2023-04-06T08:31:13;94336.28;;;12.98;37.49
6136;BME280;24008;42.664;23.372;2023-04-06T08:33:40;94363.25;;;12.86;38.14
6136;BME280;24008;42.664;23.372;2023-04-06T08:36:10;94341.81;;;12.79;38.16
6136;BME280;24008;42.664;23.372;2023-04-06T08:38:37;94338.13;;;12.66;38.23
6136;BME280;24008;42.664;23.372;2023-04-06T08:41:10;94355.72;;;11.96;38.19
6136;BME280;24008;42.664;23.372;2023-04-06T08:43:42;94347.75;;;11.82;40.15
6136;BME280;24008;42.664;23.372;2023-04-06T08:46:09;94185.59;;;11.41;38.56
6136;BME280;24008;42.664;23.372;2023-04-06T08:48:38;94345.03;;;12.49;38.39
6136;BME280;24008;42.664;23.372;2023-04-06T08:51:06;94346.16;;;12.14;38.78
6136;BME280;24008;42.664;23.372;2023-04-06T08:53:33;94306.78;;;11.32;39.21
6136;BME280;24008;42.664;23.372;2023-04-06T08:56:01;94276.28;;;10.63;39.72
6136;BME280;24008;42.664;23.372;2023-04-06T08:58:34;94351.44;;;11.04;39.98
6136;BME280;24008;42.664;23.372;2023-04-06T09:01:02;94297.16;;;11.18;38.71
6136;BME280;24008;42.664;23.372;2023-04-06T09:03:33;94348.59;;;12.32;37.52
6136;BME280;24008;42.664;23.372;2023-04-06T09:06:03;94338.50;;;13.10;37.01
6136;BME280;24008;42.664;23.372;2023-04-06T09:08:30;94208.78;;;12.68;35.45
6136;BME280;24008;42.664;23.372;2023-04-06T09:10:57;94336.50;;;13.67;35.50
6136;BME280;24008;42.664;23.372;2023-04-06T09:13:24;94194.72;;;12.64;35.61
6136;BME280;24008;42.664;23.372;2023-04-06T09:16:00;94272.03;;;12.84;34.96
6136;BME280;24008;42.664;23.372;2023-04-06T09:18:30;94287.63;;;12.74;35.05
6136;BME280;24008;42.664;23.372;2023-04-06T09:21:00;94304.44;;;12.69;35.57
6136;BME280;24008;42.664;23.372;2023-04-06T09:23:27;94326.31;;;13.12;36.49
6136;BME280;24008;42.664;23.372;2023-04-06T09:26:05;94154.16;;;12.29;34.95
6136;BME280;24008;42.664;23.372;2023-04-06T09:28:41;94325.03;;;13.78;34.72
6136;BME280;24008;42.664;23.372;2023-04-06T09:31:10;94255.59;;;13.48;35.15
6136;BME280;24008;42.664;23.372;2023-04-06T09:33:38;94282.34;;;13.77;34.99
6136;BME280;24008;42.664;23.372;2023-04-06T09:36:06;94325.06;;;14.46;34.36
6136;BME280;24008;42.664;23.372;2023-04-06T09:38:36;94323.13;;;14.63;33.74
6136;BME280;24008;42.664;23.372;2023-04-06T09:41:03;93787.03;;;10.81;34.49
6136;BME280;24008;42.664;23.372;2023-04-06T09:43:31;93822.50;;;10.76;34.89
6136;BME280;24008;42.664;23.372;2023-04-06T09:46:00;94285.53;;;14.24;33.57
6136;BME280;24008;42.664;23.372;2023-04-06T09:48:31;93845.25;;;10.55;35.15
6136;BME280;24008;42.664;23.372;2023-04-06T09:51:03;94321.81;;;13.14;36.07
6136;BME280;24008;42.664;23.372;2023-04-06T09:53:31;93962.94;;;10.62;36.51
6136;BME280;24008;42.664;23.372;2023-04-06T09:56:02;94226.81;;;12.52;36.07
6136;BME280;24008;42.664;23.372;2023-04-06T09:58:34;94329.19;;;13.25;36.43
6136;BME280;24008;42.664;23.372;2023-04-06T10:01:07;94267.25;;;12.81;36.20
6136;BME280;24008;42.664;23.372;2023-04-06T10:03:45;94322.16;;;14.03;35.15
6136;BME280;24008;42.664;23.372;2023-04-06T10:06:14;94121.72;;;13.06;34.73
6136;BME280;24008;42.664;23.372;2023-04-06T10:08:42;94330.66;;;14.04;34.27
6136;BME280;24008;42.664;23.372;2023-04-06T10:11:12;94330.38;;;13.99;33.21
6136;BME280;24008;42.664;23.372;2023-04-06T10:13:40;94119.66;;;12.78;34.35
6136;BME280;24008;42.664;23.372;2023-04-06T10:16:07;93887.25;;;10.61;34.52
6136;BME280;24008;42.664;23.372;2023-04-06T10:18:35;94329.34;;;13.54;34.06
6136;BME280;24008;42.664;23.372;2023-04-06T10:21:06;94328.81;;;13.36;35.52
6136;BME280;24008;42.664;23.372;2023-04-06T10:23:36;93897.94;;;10.72;35.66
6136;BME280;24008;42.664;23.372;2023-04-06T10:26:05;94329.50;;;13.22;35.51
6136;BME280;24008;42.664;23.372;2023-04-06T10:28:34;94184.31;;;11.62;35.95
6136;BME280;24008;42.664;23.372;2023-04-06T10:31:05;94329.03;;;12.06;36.38
6136;BME280;24008;42.664;23.372;2023-04-06T10:33:32;94315.75;;;11.95;37.44
6136;BME280;24008;42.664;23.372;2023-04-06T10:36:11;94331.25;;;12.01;36.19
6136;BME280;24008;42.664;23.372;2023-04-06T10:38:38;94228.03;;;11.02;37.21
6136;BME280;24008;42.664;23.372;2023-04-06T10:41:06;94316.75;;;11.60;36.87
6136;BME280;24008;42.664;23.372;2023-04-06T10:43:35;94013.16;;;9.45;38.21
6136;BME280;24008;42.664;23.372;2023-04-06T10:46:03;94321.97;;;12.00;36.88
6136;BME280;24008;42.664;23.372;2023-04-06T10:48:38;93805.16;;;8.32;36.32
6136;BME280;24008;42.664;23.372;2023-04-06T10:51:09;93958.13;;;9.42;37.21
6136;BME280;24008;42.664;23.372;2023-04-06T10:53:36;93963.84;;;9.70;36.77
6136;BME280;24008;42.664;23.372;2023-04-06T10:56:04;94100.66;;;11.13;35.70
6136;BME280;24008;42.664;23.372;2023-04-06T10:58:35;94317.06;;;12.94;36.15
6136;BME280;24008;42.664;23.372;2023-04-06T11:01:03;93922.84;;;10.54;36.46
6136;BME280;24008;42.664;23.372;2023-04-06T11:03:29;94314.56;;;12.78;35.01
6136;BME280;24008;42.664;23.372;2023-04-06T11:05:57;94317.81;;;11.99;36.72
6136;BME280;24008;42.664;23.372;2023-04-06T11:08:30;94277.81;;;10.81;38.20
6136;BME280;24008;42.664;23.372;2023-04-06T11:11:05;94071.22;;;8.36;41.25
6136;BME280;24008;42.664;23.372;2023-04-06T11:13:42;93986.72;;;7.60;41.52
6136;BME280;24008;42.664;23.372;2023-04-06T11:16:13;94215.91;;;8.78;40.85
6136;BME280;24008;42.664;23.372;2023-04-06T11:18:47;94098.19;;;7.55;42.02
6136;BME280;24008;42.664;23.372;2023-04-06T11:21:14;94220.41;;;8.10;43.56
6136;BME280;24008;42.664;23.372;2023-04-06T11:23:42;94311.22;;;8.38;44.43
6136;BME280;24008;42.664;23.372;2023-04-06T11:26:13;94079.97;;;6.84;43.75
6136;BME280;24008;42.664;23.372;2023-04-06T11:28:41;94307.84;;;8.47;43.99
6136;BME280;24008;42.664;23.372;2023-04-06T11:31:09;94309.47;;;8.48;43.25
6136;BME280;24008;42.664;23.372;2023-04-06T11:33:36;93835.41;;;5.69;43.06
6136;BME280;24008;42.664;23.372;2023-04-06T11:36:04;94119.97;;;7.67;43.56
6136;BME280;24008;42.664;23.372;2023-04-06T11:38:31;94302.34;;;8.89;43.11
6136;BME280;24008;42.664;23.372;2023-04-06T11:41:00;94223.06;;;8.37;43.43
6136;BME280;24008;42.664;23.372;2023-04-06T11:43:28;94236.31;;;8.41;42.95
6136;BME280;24008;42.664;23.372;2023-04-06T11:46:00;94305.56;;;8.91;43.99
6136;BME280;24008;42.664;23.372;2023-04-06T11:48:28;94158.22;;;7.85;43.17
6136;BME280;24008;42.664;23.372;2023-04-06T11:50:56;94157.19;;;7.68;43.30
6136;BME280;24008;42.664;23.372;2023-04-06T11:53:24;94291.66;;;8.29;44.01
6136;BME280;24008;42.664;23.372;2023-04-06T11:55:50;94132.22;;;7.15;43.87
6136;BME280;24008;42.664;23.372;2023-04-06T11:58:19;94228.13;;;7.62;44.33
6136;BME280;24008;42.664;23.372;2023-04-06T12:00:46;94285.25;;;8.15;44.96
6136;BME280;24008;42.664;23.372;2023-04-06T12:03:12;94197.88;;;7.01;45.75
6136;BME280;24008;42.664;23.372;2023-04-06T12:05:39;94296.91;;;7.31;46.89
6136;BME280;24008;42.664;23.372;2023-04-06T12:08:06;94285.00;;;7.12;47.46
6136;BME280;24008;42.664;23.372;2023-04-06T12:10:33;94296.81;;;6.83;47.68
6136;BME280;24008;42.664;23.372;2023-04-06T12:13:00;94297.16;;;6.69;48.02
6136;BME280;24008;42.664;23.372;2023-04-06T12:15:28;94303.69;;;6.41;49.34
6136;BME280;24008;42.664;23.372;2023-04-06T12:17:55;93909.59;;;3.67;49.87
6136;BME280;24008;42.664;23.372;2023-04-06T12:20:22;94294.78;;;6.46;49.66
6136;BME280;24008;42.664;23.372;2023-04-06T12:22:49;94294.53;;;6.49;50.29
6136;BME280;24008;42.664;23.372;2023-04-06T12:25:16;94288.13;;;6.55;49.32
6136;BME280;24008;42.664;23.372;2023-04-06T12:27:42;94116.47;;;5.53;48.96
6136;BME280;24008;42.664;23.372;2023-04-06T12:30:30;94066.13;;;5.18;49.32
6136;BME280;24008;42.664;23.372;2023-04-06T12:32:57;94286.31;;;6.36;49.81
6136;BME280;24008;42.664;23.372;2023-04-06T12:35:24;94284.66;;;6.26;49.85
6136;BME280;24008;42.664;23.372;2023-04-06T12:37:51;94201.91;;;5.62;49.92
6136;BME280;24008;42.664;23.372;2023-04-06T12:40:18;94269.56;;;6.24;50.22
6136;BME280;24008;42.664;23.372;2023-04-06T12:42:45;94277.88;;;6.26;49.54
6136;BME280;24008;42.664;23.372;2023-04-06T12:45:12;94141.53;;;5.56;50.30
6136;BME280;24008;42.664;23.372;2023-04-06T12:47:40;94266.63;;;6.29;50.04
6136;BME280;24008;42.664;23.372;2023-04-06T12:50:07;94233.13;;;6.04;49.73
6136;BME280;24008;42.664;23.372;2023-04-06T14:48:39;94185.44;;;5.36;48.84
6136;BME280;24008;42.664;23.372;2023-04-06T14:51:06;94216.25;;;5.73;49.60
6136;BME280;24008;42.664;23.372;2023-04-06T14:53:33;94230.22;;;5.67;49.16
6136;BME280;24008;42.664;23.372;2023-04-06T14:56:00;94225.06;;;5.58;49.46
6136;BME280;24008;42.664;23.372;2023-04-06T14:58:26;94181.97;;;5.37;49.92
6136;BME280;24008;42.664;23.372;2023-04-06T15:00:55;94126.66;;;5.00;51.29
6136;BME280;24008;42.664;23.372;2023-04-06T15:03:23;94257.31;;;5.88;51.08
6136;BME280;24008;42.664;23.372;2023-04-06T15:05:52;94254.78;;;5.88;51.94